Guffey, Colorado
Current Conditions -  °F | °C
As of 11:34 AM on Thursday 27 Nov 2014 (Local Time) from K4BM Reporting Station
Clear Clear  
Wind Chill: 32°   Ceiling: Unl
Heat Index: 41°   Visibility: 10mi
Dew Point:   Wind: 17mph
Humidity: 23%   Direction: 280°W
Pressure: 30.46"   Gusts: 29mph
Location:  38.75°N, 105.52°W
Report Text: K4BM 271834Z AUTO 28015G25KT 240V310 10SM CLR 05/M15 A3046 RMK AO2
Loading
Personal Weather Stations






























Interactive Weather Map New forecast layout! Learn more

10-Day Weather Forecast

Advertisements
Track Severe Weather on mobile